Авиационная погода во Владикавказе

Регион: 
Погода METAR: 
URMO 170000Z AUTO 08003MPS 9999 // ///////// 16/13 Q1004 RMK QFE710/0947
Время наблюдения
2021-05-17T00:00:00Z
Температура C
16.0
Точка росы
13.0
Направление ветра
80
Скорость ветра (узлы)
6
Метео видимость
6.21
Явления погоды
Условия полета
Аэропорт подробнее: